createdAt,value
2023-05-10T10:10:01.683Z,1.55
2023-05-10T15:10:22.149Z,0.88
2023-05-10T15:13:28.280Z,0.70
2023-05-10T15:17:11.784Z,0.60
2023-05-10T15:20:15.030Z,0.90
2023-05-10T15:23:18.430Z,0.80
2023-05-10T15:26:23.664Z,0.70
2023-05-10T15:29:35.409Z,0.82
2023-05-10T15:32:41.964Z,0.88
2023-05-10T15:35:47.618Z,0.82
2023-05-10T15:38:52.904Z,0.95
2023-05-10T15:41:55.801Z,0.80
2023-05-10T15:44:59.459Z,0.80
2023-05-10T15:48:02.765Z,0.90
2023-05-10T15:51:07.484Z,0.80
2023-05-10T15:54:30.688Z,1.02
2023-05-10T15:57:38.334Z,0.65
2023-05-10T16:00:43.351Z,0.80
2023-05-10T16:03:48.249Z,0.75
2023-05-10T16:06:54.227Z,1.12
2023-05-10T16:09:57.042Z,0.90
2023-05-10T16:13:03.911Z,0.98
2023-05-10T16:16:09.174Z,0.95
2023-05-10T16:19:14.639Z,1.00
2023-05-10T16:22:19.545Z,0.80
2023-05-10T16:25:24.394Z,0.80
2023-05-10T16:28:27.644Z,0.80
2023-05-10T16:31:31.129Z,0.90
2023-05-10T16:34:39.451Z,0.77
2023-05-10T16:37:45.705Z,0.90
2023-05-10T16:40:50.804Z,0.90
2023-05-10T16:43:58.105Z,1.00
2023-05-10T16:47:01.471Z,1.02
2023-05-10T16:50:07.236Z,1.00
2023-05-10T16:53:11.773Z,1.10
2023-05-10T16:56:17.958Z,1.20
2023-05-10T16:59:26.831Z,1.10
2023-05-10T17:02:30.205Z,1.17
2023-05-10T17:05:35.692Z,1.00
2023-05-10T17:08:39.081Z,1.20
2023-05-10T17:11:44.320Z,1.15
2023-05-10T17:14:49.969Z,1.20
2023-05-10T17:17:55.366Z,1.00
2023-05-10T17:20:58.812Z,1.43
2023-05-10T17:24:04.114Z,1.30
2023-05-10T17:27:18.064Z,1.20
2023-05-10T17:30:26.579Z,1.40
2023-05-10T17:33:39.080Z,1.10
2023-05-10T17:36:42.060Z,1.30
2023-05-10T17:39:49.096Z,1.27
2023-05-10T17:42:53.530Z,1.30
2023-05-10T17:45:56.882Z,1.42
2023-05-10T17:49:02.639Z,1.52
2023-05-10T17:52:06.015Z,1.50
2023-05-10T17:55:09.321Z,1.50
2023-05-10T17:58:15.422Z,1.70
2023-05-10T18:01:18.080Z,1.75
2023-05-10T18:04:23.491Z,2.10
2023-05-10T18:07:30.556Z,1.70
2023-05-10T18:10:36.828Z,1.77
2023-05-10T18:13:44.642Z,1.60
2023-05-10T18:17:09.031Z,1.33
2023-05-10T18:20:22.204Z,1.30
2023-05-10T18:23:25.722Z,1.23
2023-05-10T18:26:33.134Z,1.40
2023-05-10T18:29:42.429Z,1.30
2023-05-10T18:32:51.838Z,1.20
2023-05-10T18:35:55.518Z,1.23
2023-05-10T18:38:59.330Z,1.05
2023-05-10T18:42:06.308Z,1.40
2023-05-10T18:45:09.911Z,1.12
2023-05-10T18:48:33.570Z,1.37
2023-05-10T18:51:37.540Z,1.37
2023-05-10T18:54:41.301Z,1.20
2023-05-10T18:57:45.365Z,1.45
2023-05-10T19:00:51.051Z,1.30
2023-05-10T19:03:56.638Z,1.20
2023-05-10T19:10:06.948Z,1.30
2023-05-10T19:13:15.377Z,1.48
2023-05-10T19:16:18.940Z,1.02
2023-05-10T19:19:27.907Z,1.35
2023-05-10T19:22:47.172Z,1.20
2023-05-10T19:26:11.838Z,1.12
2023-05-10T19:29:16.736Z,1.15
2023-05-10T19:32:25.332Z,1.42
2023-05-10T19:35:29.104Z,1.10
2023-05-10T19:38:37.462Z,1.23
2023-05-10T19:41:42.211Z,1.30
2023-05-10T19:44:45.597Z,1.30
2023-05-10T19:47:50.689Z,1.10
2023-05-10T19:51:26.384Z,0.98
2023-05-10T19:54:32.318Z,1.20
2023-05-10T19:57:38.216Z,1.20
2023-05-10T20:00:45.199Z,1.20
2023-05-10T20:03:54.514Z,1.27
2023-05-10T20:07:00.232Z,1.45
2023-05-10T20:10:05.871Z,1.50
2023-05-10T20:13:09.672Z,1.60
2023-05-10T20:16:16.441Z,1.10
2023-05-10T20:19:22.690Z,1.50
2023-05-10T20:22:59.337Z,1.30
2023-05-10T20:26:05.390Z,1.58
2023-05-10T20:29:09.797Z,1.20
2023-05-10T20:32:14.133Z,1.23
2023-05-10T20:35:20.869Z,1.50
2023-05-10T20:38:24.238Z,1.30
2023-05-10T20:41:28.464Z,1.20
2023-05-10T20:44:32.438Z,1.50
2023-05-10T20:47:38.358Z,1.40
2023-05-10T20:51:03.839Z,1.20
2023-05-10T20:54:29.044Z,1.20
2023-05-10T20:57:32.385Z,1.45
2023-05-10T21:00:39.699Z,1.37
2023-05-10T21:03:42.977Z,1.37
2023-05-10T21:06:46.750Z,1.10
2023-05-10T21:09:50.098Z,1.20
2023-05-10T21:12:55.458Z,1.15
2023-05-10T21:16:02.376Z,1.10
2023-05-10T21:19:07.603Z,1.40
2023-05-10T21:22:10.893Z,1.37
2023-05-10T21:25:17.432Z,1.20
2023-05-10T21:28:42.771Z,1.20
2023-05-10T21:31:46.287Z,1.30
2023-05-10T21:34:50.483Z,1.15
2023-05-10T21:37:57.524Z,1.55
2023-05-10T21:41:01.402Z,1.33
2023-05-10T21:44:06.004Z,1.20
2023-05-10T21:47:12.921Z,1.20
2023-05-10T21:50:17.447Z,1.45
2023-05-10T21:53:20.989Z,1.48
2023-05-10T21:56:25.003Z,1.10
2023-05-10T21:59:28.279Z,1.20
2023-05-10T22:02:32.750Z,1.35
2023-05-10T22:05:36.710Z,1.00
2023-05-10T22:08:52.195Z,1.30
2023-05-10T22:11:56.022Z,1.10
2023-05-10T22:15:10.265Z,1.33
2023-05-10T22:18:44.490Z,1.40
2023-05-10T22:21:49.702Z,1.23
2023-05-10T22:24:53.920Z,1.30
2023-05-10T22:27:58.094Z,1.42
2023-05-10T22:31:46.480Z,1.23
2023-05-10T22:34:49.557Z,1.42
2023-05-10T22:37:55.974Z,1.48
2023-05-10T22:41:01.863Z,1.30
2023-05-10T22:44:13.330Z,1.30
2023-05-10T22:47:24.795Z,1.30
2023-05-10T22:50:50.372Z,1.12
2023-05-10T22:53:53.170Z,1.12
2023-05-10T22:56:56.933Z,1.20
2023-05-10T23:00:21.580Z,1.25
2023-05-10T23:03:25.862Z,1.45
2023-05-10T23:06:49.644Z,1.42
2023-05-10T23:09:57.497Z,1.30
2023-05-10T23:13:01.330Z,1.40
2023-05-10T23:16:06.816Z,1.62
2023-05-10T23:19:20.007Z,1.50
2023-05-10T23:22:24.309Z,1.33
2023-05-10T23:25:27.654Z,1.52
2023-05-10T23:28:32.174Z,1.30
2023-05-10T23:31:37.312Z,1.35
2023-05-10T23:34:44.594Z,1.77
2023-05-10T23:37:47.925Z,1.33
2023-05-10T23:40:51.911Z,1.42
2023-05-10T23:43:55.923Z,1.70
2023-05-10T23:47:00.411Z,1.40
2023-05-10T23:50:05.799Z,1.42
2023-05-10T23:53:10.562Z,1.15
2023-05-10T23:56:18.578Z,1.58
2023-05-10T23:59:22.563Z,1.58
